createdAt,value
2019-05-28T00:00:01.915Z,3.00
2019-05-28T00:02:21.502Z,3.03
2019-05-28T00:04:49.777Z,3.30
2019-05-28T00:07:18.111Z,3.27
2019-05-28T00:09:46.451Z,3.00
2019-05-28T00:12:14.803Z,2.93
2019-05-28T00:14:43.092Z,2.67
2019-05-28T00:17:11.352Z,2.70
2019-05-28T00:19:39.657Z,2.50
2019-05-28T00:22:07.977Z,2.80
2019-05-28T00:24:36.276Z,2.60
2019-05-28T00:27:04.526Z,2.77
2019-05-28T00:29:32.822Z,3.07
2019-05-28T00:32:01.099Z,2.50
2019-05-28T00:34:29.376Z,2.47
2019-05-28T00:36:57.639Z,2.70
2019-05-28T00:39:25.931Z,2.57
2019-05-28T00:41:54.202Z,3.00
2019-05-28T00:44:22.554Z,2.90
2019-05-28T00:46:50.806Z,3.20
2019-05-28T00:49:19.075Z,2.70
2019-05-28T00:51:47.365Z,2.80
2019-05-28T00:54:15.642Z,2.80
2019-05-28T00:56:43.921Z,2.90
2019-05-28T00:59:12.218Z,3.73
2019-05-28T01:01:40.466Z,3.53
2019-05-28T01:04:08.767Z,3.40
2019-05-28T01:06:37.176Z,3.40
2019-05-28T01:09:07.275Z,3.67
2019-05-28T01:11:35.558Z,3.80
2019-05-28T01:14:03.806Z,3.30
2019-05-28T01:16:32.111Z,3.87
2019-05-28T01:19:00.406Z,4.27
2019-05-28T01:21:28.726Z,4.50
2019-05-28T01:23:56.996Z,3.97
2019-05-28T01:26:25.285Z,4.37
2019-05-28T01:28:53.536Z,4.57
2019-05-28T01:31:21.846Z,4.03
2019-05-28T01:33:50.147Z,4.17
2019-05-28T01:36:18.455Z,3.63
2019-05-28T01:38:46.800Z,3.87
2019-05-28T01:41:15.156Z,4.20
2019-05-28T01:43:43.403Z,4.00
2019-05-28T01:46:11.671Z,3.43
2019-05-28T01:48:40.010Z,4.00
2019-05-28T01:51:08.296Z,3.50
2019-05-28T01:53:36.561Z,3.93
2019-05-28T01:56:04.841Z,3.90
2019-05-28T01:58:33.205Z,3.83
2019-05-28T02:01:12.146Z,4.20
2019-05-28T02:03:31.482Z,3.80
2019-05-28T02:05:59.753Z,3.90
2019-05-28T02:08:28.011Z,3.90
2019-05-28T02:10:56.260Z,3.83
2019-05-28T02:13:24.575Z,3.93
2019-05-28T02:15:52.822Z,3.70
2019-05-28T02:18:21.100Z,4.00
2019-05-28T02:20:49.415Z,4.17
2019-05-28T02:23:17.695Z,4.40
2019-05-28T02:25:45.938Z,4.00
2019-05-28T02:28:14.222Z,4.00
2019-05-28T02:30:42.510Z,4.27
2019-05-28T02:33:10.848Z,3.80
2019-05-28T02:35:39.113Z,3.77
2019-05-28T02:38:07.393Z,4.00
2019-05-28T02:40:35.678Z,4.83
2019-05-28T02:43:04.028Z,4.40
2019-05-28T02:45:32.335Z,4.30
2019-05-28T02:48:00.618Z,3.77
2019-05-28T02:50:54.447Z,4.07
2019-05-28T02:53:22.730Z,4.07
2019-05-28T02:55:50.973Z,4.57
2019-05-28T02:58:19.385Z,3.77
2019-05-28T03:00:48.804Z,3.80
2019-05-28T03:03:17.216Z,4.77
2019-05-28T03:05:45.477Z,4.77
2019-05-28T03:08:13.751Z,4.43
2019-05-28T03:13:12.041Z,4.63
2019-05-28T03:15:41.416Z,4.30
2019-05-28T03:18:09.827Z,4.83
2019-05-28T03:20:38.116Z,4.60
2019-05-28T03:23:06.347Z,4.67
2019-05-28T03:25:34.646Z,4.50
2019-05-28T03:28:02.895Z,4.33
2019-05-28T03:30:31.192Z,4.93
2019-05-28T03:32:59.452Z,4.70
2019-05-28T03:35:27.790Z,4.10
2019-05-28T03:37:56.041Z,3.90
2019-05-28T03:40:42.429Z,3.70
2019-05-28T03:43:10.665Z,4.13
2019-05-28T03:45:39.040Z,3.97
2019-05-28T03:48:07.458Z,4.40
2019-05-28T03:50:35.740Z,4.40
2019-05-28T03:53:04.362Z,3.80
2019-05-28T03:55:32.667Z,4.57
2019-05-28T03:58:00.915Z,4.67
2019-05-28T04:00:29.211Z,4.20
2019-05-28T04:02:57.476Z,4.90
2019-05-28T04:05:25.815Z,4.87
2019-05-28T04:07:54.082Z,5.00
2019-05-28T04:10:22.375Z,4.80
2019-05-28T04:12:50.705Z,4.90
2019-05-28T04:15:18.991Z,4.97
2019-05-28T04:17:47.253Z,4.33
2019-05-28T04:20:15.532Z,4.60
2019-05-28T04:22:43.788Z,3.87
2019-05-28T04:25:12.082Z,4.10
2019-05-28T04:27:40.311Z,4.00
2019-05-28T04:30:08.593Z,4.23
2019-05-28T04:32:40.518Z,4.60
2019-05-28T04:35:07.056Z,4.17
2019-05-28T04:37:35.317Z,4.60
2019-05-28T04:40:04.626Z,3.80
2019-05-28T04:42:32.970Z,4.17
2019-05-28T04:45:01.213Z,4.07
2019-05-28T04:47:29.512Z,4.20
2019-05-28T04:49:57.826Z,3.80
2019-05-28T04:52:26.122Z,4.00
2019-05-28T04:54:54.457Z,4.13
2019-05-28T04:57:22.800Z,3.70
2019-05-28T04:59:51.077Z,3.90
2019-05-28T05:02:19.352Z,4.10
2019-05-28T05:04:47.616Z,3.70
2019-05-28T05:07:15.926Z,3.87
2019-05-28T05:09:44.172Z,4.00
2019-05-28T05:12:12.462Z,4.60
2019-05-28T05:14:40.717Z,4.70
2019-05-28T05:17:08.992Z,4.60
2019-05-28T05:19:37.275Z,4.67
2019-05-28T05:22:05.551Z,4.13
2019-05-28T05:24:33.823Z,4.07
2019-05-28T05:27:02.137Z,4.30
2019-05-28T05:29:30.386Z,4.83
2019-05-28T05:31:58.633Z,4.53
2019-05-28T05:34:26.927Z,5.13
2019-05-28T05:36:55.298Z,4.50
2019-05-28T05:39:23.605Z,4.50
2019-05-28T05:41:51.865Z,4.40
2019-05-28T05:44:20.176Z,5.00
2019-05-28T05:46:48.537Z,4.70
2019-05-28T05:49:16.943Z,4.63
2019-05-28T05:51:45.265Z,4.13
2019-05-28T05:54:13.545Z,4.60
2019-05-28T05:56:41.827Z,4.63
2019-05-28T05:59:10.161Z,4.70
2019-05-28T06:01:38.450Z,4.70
2019-05-28T06:04:06.750Z,4.40
2019-05-28T06:06:35.001Z,4.33
2019-05-28T06:09:03.855Z,4.27
2019-05-28T06:11:32.138Z,4.73
2019-05-28T06:14:00.506Z,4.40
2019-05-28T06:16:28.792Z,3.87
2019-05-28T06:18:57.172Z,4.90
2019-05-28T06:21:25.462Z,4.57
2019-05-28T06:23:53.748Z,4.30
2019-05-28T06:26:22.099Z,4.17
2019-05-28T06:28:50.448Z,4.33
2019-05-28T06:31:18.711Z,3.83
2019-05-28T06:33:56.173Z,4.20
2019-05-28T06:36:17.004Z,3.60
2019-05-28T06:38:45.363Z,3.80
2019-05-28T06:41:13.647Z,3.97
2019-05-28T06:43:41.918Z,4.47
2019-05-28T06:46:10.198Z,4.00
2019-05-28T06:48:38.462Z,4.27
2019-05-28T06:51:06.767Z,3.90
2019-05-28T06:53:35.030Z,3.73
2019-05-28T06:56:03.365Z,4.13
2019-05-28T06:58:39.253Z,3.30
2019-05-28T07:01:01.990Z,3.50
2019-05-28T07:03:30.715Z,3.50
2019-05-28T07:06:07.265Z,3.70
2019-05-28T07:08:29.003Z,4.20
2019-05-28T07:10:58.551Z,3.50
2019-05-28T07:13:27.013Z,4.10
2019-05-28T07:15:55.292Z,3.73
2019-05-28T07:18:23.563Z,4.20
2019-05-28T07:20:51.845Z,3.70
2019-05-28T07:23:20.124Z,3.23
2019-05-28T07:25:48.418Z,3.77
2019-05-28T07:28:16.749Z,3.87
2019-05-28T07:30:45.132Z,3.93
2019-05-28T07:33:13.396Z,3.83
2019-05-28T07:35:45.654Z,3.57
2019-05-28T07:38:11.786Z,4.30
2019-05-28T07:40:40.128Z,3.67
2019-05-28T07:43:08.391Z,3.67
2019-05-28T07:45:36.687Z,4.00
2019-05-28T07:48:04.981Z,3.30
2019-05-28T07:50:33.277Z,3.60
2019-05-28T07:53:01.705Z,3.90
2019-05-28T07:55:30.017Z,4.17
2019-05-28T07:57:58.358Z,3.60
2019-05-28T08:00:38.402Z,3.70
2019-05-28T08:03:06.736Z,4.27
2019-05-28T08:05:35.275Z,4.00
2019-05-28T08:08:05.201Z,3.90
2019-05-28T08:10:33.496Z,3.67
2019-05-28T08:13:01.868Z,3.83
2019-05-28T08:15:30.221Z,4.50
2019-05-28T08:17:58.606Z,4.00
2019-05-28T08:20:26.873Z,6.10
2019-05-28T08:22:55.246Z,4.57
2019-05-28T08:25:43.610Z,4.43
2019-05-28T08:27:53.572Z,5.67
2019-05-28T08:30:21.833Z,5.13
2019-05-28T08:32:50.156Z,5.70
2019-05-28T08:35:18.550Z,6.77
2019-05-28T08:37:46.860Z,6.70
2019-05-28T08:40:15.471Z,6.33
2019-05-28T08:42:43.861Z,6.83
2019-05-28T08:45:12.237Z,7.57
2019-05-28T08:47:40.540Z,7.13
2019-05-28T08:50:09.737Z,6.93
2019-05-28T08:52:38.186Z,6.40
2019-05-28T08:55:06.658Z,4.07
2019-05-28T08:57:35.001Z,5.10
2019-05-28T09:00:04.602Z,4.73
2019-05-28T09:02:32.912Z,4.70
2019-05-28T09:05:01.255Z,4.10
2019-05-28T09:07:29.602Z,4.37
2019-05-28T09:09:57.857Z,3.57
2019-05-28T09:12:26.151Z,2.70
2019-05-28T09:14:56.521Z,3.70
2019-05-28T09:17:24.433Z,3.67
2019-05-28T09:19:52.736Z,3.57
2019-05-28T09:22:25.553Z,4.47
2019-05-28T09:24:50.998Z,4.87
2019-05-28T09:27:19.282Z,4.63
2019-05-28T09:29:47.558Z,4.57
2019-05-28T09:32:15.837Z,4.50
2019-05-28T09:34:44.135Z,4.13
2019-05-28T09:37:12.457Z,4.43
2019-05-28T09:39:40.758Z,4.90
2019-05-28T09:42:09.033Z,5.47
2019-05-28T09:44:37.383Z,4.70
2019-05-28T09:47:05.651Z,4.30
2019-05-28T09:49:34.002Z,4.23
2019-05-28T09:52:02.287Z,5.47
2019-05-28T09:54:30.633Z,4.90
2019-05-28T09:56:58.912Z,4.90
2019-05-28T09:59:40.627Z,6.10
2019-05-28T10:01:57.444Z,5.63
2019-05-28T10:04:44.167Z,5.97
2019-05-28T10:06:55.819Z,6.07
2019-05-28T10:09:24.237Z,6.00
2019-05-28T10:11:52.500Z,5.67
2019-05-28T10:14:20.920Z,5.63
2019-05-28T10:16:49.223Z,5.17
2019-05-28T10:19:17.547Z,5.63
2019-05-28T10:21:46.040Z,5.07
2019-05-28T10:24:14.527Z,5.33
2019-05-28T10:26:42.833Z,4.60
2019-05-28T10:29:11.106Z,5.03
2019-05-28T10:31:39.413Z,5.00
2019-05-28T10:34:07.735Z,5.23
2019-05-28T10:36:38.028Z,6.00
2019-05-28T10:39:08.235Z,7.40
2019-05-28T10:41:36.532Z,9.17
2019-05-28T10:44:06.447Z,9.83
2019-05-28T10:46:34.736Z,9.60
2019-05-28T10:49:03.008Z,10.73
2019-05-28T10:51:31.404Z,10.87
2019-05-28T10:53:59.656Z,13.00
2019-05-28T10:56:27.937Z,13.37
2019-05-28T10:58:56.196Z,10.30
2019-05-28T11:01:24.487Z,9.90
2019-05-28T11:03:52.761Z,9.50
2019-05-28T11:06:21.091Z,8.83
2019-05-28T11:08:49.478Z,9.67
2019-05-28T11:11:17.771Z,7.77
2019-05-28T11:13:53.181Z,6.60
2019-05-28T11:16:16.062Z,7.43
2019-05-28T11:18:44.427Z,7.03
2019-05-28T11:21:12.680Z,7.53
2019-05-28T11:23:40.978Z,8.27
2019-05-28T11:26:09.242Z,8.30
2019-05-28T11:28:37.537Z,8.20
2019-05-28T11:31:05.814Z,9.40
2019-05-28T11:33:34.176Z,9.53
2019-05-28T11:36:02.454Z,10.33
2019-05-28T11:38:30.743Z,10.20
2019-05-28T11:40:59.015Z,9.73
2019-05-28T11:43:27.316Z,9.97
2019-05-28T11:45:55.602Z,9.23
2019-05-28T11:48:23.891Z,9.20
2019-05-28T11:50:52.174Z,8.60
2019-05-28T11:53:20.615Z,9.40
2019-05-28T11:55:49.051Z,8.97
2019-05-28T11:58:17.397Z,7.97
2019-05-28T12:00:45.708Z,7.10
2019-05-28T12:03:14.026Z,6.40
2019-05-28T12:05:42.343Z,7.03
2019-05-28T12:08:10.657Z,7.00
2019-05-28T12:10:38.942Z,6.73
2019-05-28T12:13:10.794Z,7.10
2019-05-28T12:15:37.287Z,6.87
2019-05-28T12:18:05.629Z,7.57
2019-05-28T12:20:33.930Z,7.40
2019-05-28T12:23:10.996Z,7.00
2019-05-28T12:25:32.252Z,6.77
2019-05-28T12:28:00.586Z,6.87
2019-05-28T12:30:28.897Z,6.90
2019-05-28T12:32:57.163Z,7.30
2019-05-28T12:35:29.612Z,7.40
2019-05-28T12:37:55.727Z,7.30
2019-05-28T12:40:24.012Z,6.83
2019-05-28T12:42:52.289Z,5.93
2019-05-28T12:45:34.195Z,5.77
2019-05-28T12:48:07.260Z,5.63
2019-05-28T12:50:21.117Z,5.60
2019-05-28T12:52:49.423Z,5.97
2019-05-28T12:55:17.711Z,6.37
2019-05-28T12:57:46.050Z,6.40
2019-05-28T13:00:14.486Z,7.67
2019-05-28T13:02:42.870Z,6.80
2019-05-28T13:05:22.038Z,7.63
2019-05-28T13:08:06.290Z,7.30
2019-05-28T13:10:20.315Z,8.57
2019-05-28T13:12:48.658Z,5.87
2019-05-28T13:15:16.964Z,5.87
2019-05-28T13:17:45.502Z,5.87
2019-05-28T13:20:14.130Z,6.23
2019-05-28T13:22:42.586Z,6.03
2019-05-28T13:25:10.888Z,7.20
2019-05-28T13:27:39.155Z,7.07
2019-05-28T13:30:14.179Z,8.00
2019-05-28T13:32:42.982Z,6.30
2019-05-28T13:35:11.738Z,6.63
2019-05-28T13:37:40.011Z,6.67
2019-05-28T13:40:09.221Z,8.17
2019-05-28T13:42:37.570Z,9.57
2019-05-28T13:45:06.534Z,9.77
2019-05-28T13:47:34.903Z,9.57
2019-05-28T13:50:05.255Z,9.50
2019-05-28T13:52:33.576Z,9.10
2019-05-28T13:55:01.897Z,9.83
2019-05-28T13:57:30.247Z,11.53
2019-05-28T13:59:59.339Z,14.17
2019-05-28T14:02:27.732Z,11.50
2019-05-28T14:04:55.989Z,13.53
2019-05-28T14:07:24.272Z,13.97
2019-05-28T14:09:52.512Z,13.33
2019-05-28T14:12:20.809Z,12.20
2019-05-28T14:14:49.100Z,11.43
2019-05-28T14:17:17.414Z,10.30
2019-05-28T14:19:45.767Z,10.47
2019-05-28T14:22:14.163Z,9.77
2019-05-28T14:24:42.476Z,8.80
2019-05-28T14:27:10.881Z,8.77
2019-05-28T14:29:39.146Z,7.73
2019-05-28T14:32:07.522Z,6.40
2019-05-28T14:34:35.871Z,6.43
2019-05-28T14:37:04.219Z,6.00
2019-05-28T14:39:41.116Z,5.70
2019-05-28T14:42:02.504Z,5.23
2019-05-28T14:44:30.775Z,5.30
2019-05-28T14:46:59.235Z,5.23
2019-05-28T14:49:27.583Z,5.50
2019-05-28T14:51:55.947Z,3.97
2019-05-28T14:54:24.250Z,3.43
2019-05-28T14:56:52.498Z,3.80
2019-05-28T14:59:20.868Z,3.60
2019-05-28T15:01:49.221Z,4.20
2019-05-28T15:04:17.527Z,3.30
2019-05-28T15:06:45.804Z,3.00
2019-05-28T15:09:20.660Z,2.67
2019-05-28T15:11:44.121Z,2.90
2019-05-28T15:14:12.537Z,2.40
2019-05-28T15:16:40.804Z,2.70
2019-05-28T15:19:09.158Z,2.67
2019-05-28T15:21:37.479Z,2.40
2019-05-28T15:24:05.881Z,2.17
2019-05-28T15:26:34.187Z,2.10
2019-05-28T15:29:02.516Z,1.80
2019-05-28T15:31:30.803Z,2.03
2019-05-28T15:33:59.100Z,2.33
2019-05-28T15:36:27.435Z,2.00
2019-05-28T15:38:55.731Z,2.30
2019-05-28T15:41:24.053Z,2.30
2019-05-28T15:43:52.352Z,2.60
2019-05-28T15:46:20.603Z,2.70
2019-05-28T15:48:48.895Z,2.53
2019-05-28T15:51:17.165Z,2.53
2019-05-28T15:53:45.552Z,1.90
2019-05-28T15:56:13.877Z,2.07
2019-05-28T15:58:42.150Z,2.00
2019-05-28T16:01:10.501Z,2.00
2019-05-28T16:03:38.756Z,2.37
2019-05-28T16:06:07.151Z,2.00
2019-05-28T16:08:35.471Z,2.30
2019-05-28T16:11:03.817Z,2.30
2019-05-28T16:13:32.150Z,2.30
2019-05-28T16:16:00.442Z,1.70
2019-05-28T16:18:28.722Z,1.70
2019-05-28T16:20:57.001Z,1.83
2019-05-28T16:23:25.260Z,1.90
2019-05-28T16:25:53.623Z,2.10
2019-05-28T16:28:21.896Z,2.23
2019-05-28T16:30:50.192Z,2.07
2019-05-28T16:33:18.475Z,1.93
2019-05-28T16:35:46.827Z,2.00
2019-05-28T16:38:15.116Z,2.27
2019-05-28T16:40:43.647Z,2.07
2019-05-28T16:43:12.101Z,1.93
2019-05-28T16:45:40.408Z,2.60
2019-05-28T16:48:08.675Z,2.63
2019-05-28T16:50:36.969Z,3.20
2019-05-28T16:53:05.254Z,3.30
2019-05-28T16:55:33.591Z,3.93
2019-05-28T16:58:01.887Z,3.80
2019-05-28T17:00:30.284Z,4.50
2019-05-28T17:02:58.612Z,4.50
2019-05-28T17:05:26.980Z,4.87
2019-05-28T17:07:55.248Z,5.00
2019-05-28T17:10:32.924Z,4.53
2019-05-28T17:12:53.599Z,4.27
2019-05-28T17:15:22.072Z,4.17
2019-05-28T17:17:50.352Z,4.23
2019-05-28T17:20:18.677Z,4.43
2019-05-28T17:22:47.003Z,5.20
2019-05-28T17:25:15.313Z,4.80
2019-05-28T17:27:43.607Z,5.33
2019-05-28T17:30:19.263Z,4.70
2019-05-28T17:32:41.898Z,4.57
2019-05-28T17:35:10.258Z,4.80
2019-05-28T17:37:38.634Z,4.90
2019-05-28T17:40:07.039Z,4.70
2019-05-28T17:42:35.431Z,5.00
2019-05-28T17:45:04.438Z,5.20
2019-05-28T17:47:41.788Z,5.00
2019-05-28T17:50:03.486Z,5.20
2019-05-28T17:52:31.858Z,5.50
2019-05-28T17:55:00.132Z,5.30
2019-05-28T17:57:28.485Z,5.17
2019-05-28T17:59:56.751Z,4.80
2019-05-28T18:02:25.076Z,5.50
2019-05-28T18:04:53.387Z,5.30
2019-05-28T18:07:21.658Z,5.17
2019-05-28T18:09:49.938Z,5.07
2019-05-28T18:12:18.332Z,5.73
2019-05-28T18:14:46.617Z,5.80
2019-05-28T18:17:14.955Z,5.60
2019-05-28T18:19:43.323Z,6.23
2019-05-28T18:22:11.566Z,6.23
2019-05-28T18:24:39.834Z,6.03
2019-05-28T18:27:08.096Z,6.30
2019-05-28T18:29:36.430Z,6.43
2019-05-28T18:32:04.754Z,6.00
2019-05-28T18:34:33.125Z,5.27
2019-05-28T18:37:01.391Z,4.13
2019-05-28T18:39:29.753Z,4.73
2019-05-28T18:41:58.143Z,4.10
2019-05-28T18:44:26.512Z,4.10
2019-05-28T18:46:54.858Z,3.93
2019-05-28T18:49:23.240Z,4.60
2019-05-28T18:51:51.580Z,5.00
2019-05-28T18:54:19.878Z,4.87
2019-05-28T18:56:48.137Z,5.10
2019-05-28T18:59:16.499Z,5.00
2019-05-28T19:01:44.791Z,4.80
2019-05-28T19:04:13.121Z,4.20
2019-05-28T19:06:41.449Z,3.37
2019-05-28T19:09:11.521Z,3.30
2019-05-28T19:11:40.001Z,3.50
2019-05-28T19:14:08.252Z,3.63
2019-05-28T19:16:36.558Z,3.70
2019-05-28T19:19:04.831Z,3.10
2019-05-28T19:21:33.209Z,3.03
2019-05-28T19:24:01.560Z,3.20
2019-05-28T19:26:29.924Z,3.20
2019-05-28T19:28:58.246Z,2.60
2019-05-28T19:31:26.612Z,2.97
2019-05-28T19:33:54.930Z,3.27
2019-05-28T19:36:23.221Z,3.20
2019-05-28T19:38:51.690Z,3.00
2019-05-28T19:41:20.035Z,3.70
2019-05-28T19:43:48.295Z,4.07
2019-05-28T19:46:16.588Z,4.93
2019-05-28T19:48:44.984Z,5.30
2019-05-28T19:51:13.366Z,5.40
2019-05-28T19:53:41.642Z,5.27
2019-05-28T19:56:09.962Z,4.60
2019-05-28T19:58:38.229Z,5.40
2019-05-28T20:01:06.526Z,6.77
2019-05-28T20:03:34.852Z,7.13
2019-05-28T20:06:03.444Z,7.43
2019-05-28T20:08:31.708Z,6.97
2019-05-28T20:10:59.991Z,6.77
2019-05-28T20:13:29.122Z,7.43
2019-05-28T20:15:57.440Z,6.63
2019-05-28T20:18:26.952Z,8.43
2019-05-28T20:20:55.908Z,7.93
2019-05-28T20:23:24.286Z,8.50
2019-05-28T20:25:54.087Z,7.90
2019-05-28T20:28:22.691Z,9.40
2019-05-28T20:30:51.093Z,9.63
2019-05-28T20:33:19.395Z,10.07
2019-05-28T20:35:47.696Z,8.60
2019-05-28T20:38:16.044Z,8.70
2019-05-28T20:40:44.462Z,8.47
2019-05-28T20:43:12.745Z,8.07
2019-05-28T20:45:41.036Z,9.53
2019-05-28T20:48:09.316Z,10.40
2019-05-28T20:50:37.721Z,9.60
2019-05-28T20:53:06.004Z,9.97
2019-05-28T20:55:34.304Z,10.27
2019-05-28T20:58:02.669Z,9.40
2019-05-28T21:00:31.011Z,11.83
2019-05-28T21:02:59.313Z,11.73
2019-05-28T21:05:27.569Z,10.60
2019-05-28T21:07:56.251Z,12.17
2019-05-28T21:10:24.540Z,12.13
2019-05-28T21:12:52.810Z,11.23
2019-05-28T21:15:21.132Z,12.57
2019-05-28T21:17:49.426Z,11.73
2019-05-28T21:20:17.720Z,12.73
2019-05-28T21:22:46.005Z,11.07
2019-05-28T21:25:14.250Z,12.37
2019-05-28T21:27:42.557Z,12.43
2019-05-28T21:30:10.816Z,10.97
2019-05-28T21:32:39.094Z,13.07
2019-05-28T21:35:07.441Z,14.13
2019-05-28T21:37:35.704Z,14.73
2019-05-28T21:40:05.801Z,15.23
2019-05-28T21:42:34.174Z,15.87
2019-05-28T21:45:02.641Z,13.80
2019-05-28T21:47:31.030Z,14.63
2019-05-28T21:49:59.521Z,14.10
2019-05-28T21:52:28.086Z,13.73
2019-05-28T21:54:57.202Z,13.70
2019-05-28T21:57:25.552Z,14.37
2019-05-28T21:59:53.897Z,14.30
2019-05-28T22:02:22.236Z,16.50
2019-05-28T22:04:50.531Z,16.67
2019-05-28T22:07:18.857Z,15.97
2019-05-28T22:09:47.164Z,14.97
2019-05-28T22:12:15.468Z,12.93
2019-05-28T22:14:43.748Z,12.23
2019-05-28T22:17:13.250Z,12.33
2019-05-28T22:19:41.634Z,12.97
2019-05-28T22:22:09.968Z,12.17
2019-05-28T22:24:38.259Z,10.83
2019-05-28T22:27:06.584Z,7.17
2019-05-28T22:29:34.870Z,8.03
2019-05-28T22:32:03.154Z,8.33
2019-05-28T22:34:31.472Z,7.37
2019-05-28T22:37:00.310Z,8.03
2019-05-28T22:39:29.702Z,7.47
2019-05-28T22:41:59.500Z,8.40
2019-05-28T22:44:27.910Z,8.17
2019-05-28T22:46:57.056Z,9.33
2019-05-28T22:49:25.434Z,8.73
2019-05-28T22:51:53.742Z,7.23
2019-05-28T22:54:21.995Z,7.07
2019-05-28T22:56:50.344Z,6.87
2019-05-28T22:59:18.611Z,5.30
2019-05-28T23:01:46.898Z,4.60
2019-05-28T23:04:15.236Z,4.87
2019-05-28T23:06:43.601Z,5.07
2019-05-28T23:09:12.024Z,4.90
2019-05-28T23:11:40.311Z,4.83
2019-05-28T23:14:08.577Z,4.63
2019-05-28T23:16:36.878Z,4.53
2019-05-28T23:19:05.151Z,5.97
2019-05-28T23:21:33.521Z,5.60
2019-05-28T23:24:03.038Z,5.03
2019-05-28T23:26:31.451Z,5.30
2019-05-28T23:28:59.705Z,5.27
2019-05-28T23:31:28.099Z,5.20
2019-05-28T23:33:56.334Z,3.93
2019-05-28T23:36:24.584Z,3.73
2019-05-28T23:38:52.844Z,4.10
2019-05-28T23:41:21.119Z,3.73
2019-05-28T23:44:01.137Z,3.53
2019-05-28T23:46:19.384Z,3.07
2019-05-28T23:48:47.671Z,3.13
2019-05-28T23:51:15.932Z,3.60
2019-05-28T23:53:44.238Z,3.50
2019-05-28T23:56:13.816Z,3.30
2019-05-28T23:58:42.220Z,3.10
